Time;durP1;ratioP1;P1;durP2;ratioP2;P2;SDS_P1;SDS_P2;PMS_P1;PMS_P2;Temp;Humidity;BMP_temperature;BMP_pressure;BME280_temperature;BME280_humidity;BME280_pressure;Samples;Min_cycle;Max_cycle;Signal;HPM_P1;HPM_P2
2022/07/20 00:00:08;;;;;;;10.37;6.67;;;20.80;51.00;;;;;;4986380;28;20276;-59
2022/07/20 00:02:34;;;;;;;9.10;6.50;;;20.80;51.00;;;;;;4983345;28;20173;-59
2022/07/20 00:05:00;;;;;;;11.87;7.13;;;20.80;51.10;;;;;;4983099;28;20436;-60
2022/07/20 00:07:25;;;;;;;9.57;6.97;;;20.70;51.80;;;;;;4984820;28;20220;-60
2022/07/20 00:12:35;;;;;;;9.87;6.97;;;20.60;51.40;;;;;;4986319;28;20231;-60
2022/07/20 00:15:01;;;;;;;12.80;7.53;;;20.60;51.50;;;;;;4979876;28;20429;-59
2022/07/20 00:17:27;;;;;;;14.80;6.80;;;20.60;51.60;;;;;;4984822;28;20570;-60
2022/07/20 00:19:52;;;;;;;10.40;6.53;;;20.50;51.80;;;;;;4979873;28;20176;-59
2022/07/20 00:22:18;;;;;;;7.90;6.37;;;20.50;51.80;;;;;;4983770;28;20169;-60
2022/07/20 00:24:43;;;;;;;12.13;8.10;;;20.40;51.90;;;;;;4984500;28;20606;-59
2022/07/20 00:27:09;;;;;;;11.63;7.30;;;20.40;52.10;;;;;;4982432;28;20807;-59
2022/07/20 00:29:35;;;;;;;15.30;6.70;;;20.40;52.20;;;;;;4983838;28;20181;-60
2022/07/20 00:32:00;;;;;;;8.73;6.97;;;20.30;52.20;;;;;;4984661;28;20211;-58
2022/07/20 00:34:26;;;;;;;10.23;6.37;;;20.30;52.30;;;;;;4987170;28;20165;-60
2022/07/20 00:36:51;;;;;;;10.37;6.93;;;20.30;52.50;;;;;;4985917;28;20201;-60
2022/07/20 00:39:17;;;;;;;10.77;7.47;;;20.20;52.50;;;;;;4980232;28;20186;-60
2022/07/20 00:41:43;;;;;;;11.43;7.30;;;20.20;52.60;;;;;;4983333;28;20185;-60
2022/07/20 00:44:10;;;;;;;14.67;6.83;;;20.20;52.70;;;;;;4980260;28;20181;-60
2022/07/20 00:46:38;;;;;;;9.10;6.93;;;20.20;52.70;;;;;;4983277;28;20356;-60
2022/07/20 00:49:05;;;;;;;12.17;6.80;;;20.10;52.90;;;;;;4984538;28;20431;-60
2022/07/20 00:51:31;;;;;;;11.73;7.13;;;20.10;53.10;;;;;;4985419;28;20583;-59
2022/07/20 00:53:57;;;;;;;11.97;7.47;;;20.10;53.20;;;;;;4986939;28;20459;-60
2022/07/20 00:56:23;;;;;;;9.93;7.00;;;20.10;53.40;;;;;;4984500;28;21455;-60
2022/07/20 00:58:49;;;;;;;12.40;8.03;;;20.10;53.50;;;;;;4987783;28;20440;-60
2022/07/20 01:01:15;;;;;;;14.20;7.97;;;20.00;53.40;;;;;;4996153;28;20266;-59
2022/07/20 01:03:41;;;;;;;11.63;7.93;;;20.00;53.30;;;;;;4986229;28;20436;-60
2022/07/20 01:06:08;;;;;;;16.00;6.87;;;20.00;53.50;;;;;;4988198;28;20459;-61
2022/07/20 01:08:34;;;;;;;10.03;7.13;;;20.00;53.50;;;;;;4987401;28;20416;-60
2022/07/20 01:11:01;;;;;;;11.50;7.20;;;20.00;53.60;;;;;;4985209;28;20432;-60
2022/07/20 01:13:27;;;;;;;10.83;8.23;;;19.80;53.60;;;;;;4982812;28;20437;-60
2022/07/20 01:15:53;;;;;;;11.93;7.07;;;19.80;53.90;;;;;;4987178;28;20430;-60
2022/07/20 01:18:19;;;;;;;10.03;7.60;;;19.80;53.70;;;;;;4986992;28;20463;-60
2022/07/20 01:20:47;;;;;;;10.67;7.70;;;19.70;53.80;;;;;;4982626;28;20204;-60
2022/07/20 01:23:17;;;;;;;12.53;8.10;;;19.70;54.10;;;;;;4987753;28;20264;-61
2022/07/20 01:25:43;;;;;;;8.83;7.23;;;19.60;54.20;;;;;;4983966;28;20496;-60
2022/07/20 01:28:11;;;;;;;17.93;8.33;;;19.60;54.60;;;;;;4988211;28;20464;-59
2022/07/20 01:30:37;;;;;;;11.83;7.80;;;19.60;54.50;;;;;;4987703;28;20168;-59
2022/07/20 01:33:03;;;;;;;11.90;7.37;;;19.50;54.50;;;;;;4986622;28;20444;-59
2022/07/20 01:35:29;;;;;;;11.60;7.40;;;19.50;54.60;;;;;;4983978;28;20828;-60
2022/07/20 01:37:54;;;;;;;14.33;7.63;;;19.50;54.70;;;;;;4987277;28;20205;-60
2022/07/20 01:40:20;;;;;;;14.20;7.43;;;19.50;54.90;;;;;;4986745;28;20185;-60
2022/07/20 01:42:46;;;;;;;12.23;7.90;;;19.50;54.90;;;;;;4983222;28;20658;-59
2022/07/20 01:45:12;;;;;;;12.87;7.40;;;19.50;54.80;;;;;;4987712;28;20459;-60
2022/07/20 01:47:38;;;;;;;14.17;7.93;;;19.40;54.80;;;;;;4984729;28;20193;-60
2022/07/20 01:50:05;;;;;;;13.53;7.70;;;19.40;54.90;;;;;;4984932;28;20467;-60
2022/07/20 01:52:30;;;;;;;11.10;8.40;;;19.40;55.10;;;;;;4986428;28;20268;-60
2022/07/20 01:54:56;;;;;;;14.43;7.73;;;19.40;55.10;;;;;;4982724;28;20515;-60
2022/07/20 01:57:21;;;;;;;11.60;8.20;;;19.40;55.20;;;;;;4984095;28;20196;-60
2022/07/20 01:59:47;;;;;;;13.90;7.93;;;19.40;55.30;;;;;;4990212;28;20177;-59
2022/07/20 02:02:13;;;;;;;16.27;8.07;;;19.30;55.40;;;;;;4986183;28;20180;-59
2022/07/20 02:04:38;;;;;;;12.37;7.00;;;19.30;55.40;;;;;;4987647;28;20185;-59
2022/07/20 02:07:04;;;;;;;12.60;9.10;;;19.30;55.50;;;;;;4988340;28;20213;-59
2022/07/20 02:09:30;;;;;;;11.23;7.67;;;19.30;55.60;;;;;;4987472;28;20660;-59
2022/07/20 02:11:55;;;;;;;11.60;7.40;;;19.30;55.60;;;;;;4984921;28;20727;-59
2022/07/20 02:14:22;;;;;;;12.83;7.60;;;19.30;55.90;;;;;;4985165;28;20208;-59
2022/07/20 02:16:47;;;;;;;11.20;7.97;;;19.30;55.80;;;;;;4991382;28;20196;-58
2022/07/20 02:19:13;;;;;;;11.80;7.37;;;19.30;56.10;;;;;;4987718;28;20807;-59
2022/07/20 02:21:39;;;;;;;14.67;7.97;;;19.30;56.30;;;;;;4987961;28;20185;-60
2022/07/20 02:24:05;;;;;;;10.47;8.10;;;19.20;56.30;;;;;;4988986;28;20239;-61
2022/07/20 02:26:31;;;;;;;12.33;7.70;;;19.20;56.60;;;;;;5003578;28;20234;-59
2022/07/20 02:28:56;;;;;;;10.90;8.20;;;19.20;56.70;;;;;;4996812;28;20511;-59
2022/07/20 02:31:23;;;;;;;13.90;7.70;;;19.20;56.70;;;;;;4992043;28;20825;-59
2022/07/20 02:33:49;;;;;;;14.97;9.17;;;19.10;56.50;;;;;;4992695;28;20260;-60
2022/07/20 02:36:15;;;;;;;14.50;8.13;;;19.10;56.60;;;;;;4987672;28;20428;-60
2022/07/20 02:38:41;;;;;;;13.57;8.10;;;19.10;56.60;;;;;;4984423;28;20420;-60
2022/07/20 02:41:06;;;;;;;13.00;8.10;;;19.00;56.70;;;;;;4989681;28;20420;-59
2022/07/20 02:43:32;;;;;;;16.97;8.40;;;19.00;56.80;;;;;;4989820;28;20178;-59
2022/07/20 02:45:58;;;;;;;14.77;8.47;;;19.00;57.20;;;;;;4985368;28;20705;-59
2022/07/20 02:48:23;;;;;;;12.40;8.40;;;18.90;57.40;;;;;;4986909;28;20256;-60
2022/07/20 02:50:49;;;;;;;13.60;7.97;;;18.90;57.40;;;;;;4984326;28;20213;-60
2022/07/20 02:53:15;;;;;;;14.70;8.20;;;18.90;57.50;;;;;;4996542;28;20181;-59
2022/07/20 02:55:42;;;;;;;10.80;8.07;;;18.90;57.80;;;;;;4984419;28;20181;-60
2022/07/20 02:58:09;;;;;;;12.17;7.87;;;18.80;57.70;;;;;;4983400;28;20285;-60
2022/07/20 03:00:36;;;;;;;13.60;7.83;;;18.80;57.80;;;;;;4987726;28;20502;-61
2022/07/20 03:03:01;;;;;;;13.60;7.90;;;18.80;57.80;;;;;;4993118;28;20424;-60
2022/07/20 03:05:27;;;;;;;12.90;8.13;;;18.70;57.90;;;;;;4989118;28;20475;-59
2022/07/20 03:07:53;;;;;;;14.43;8.00;;;18.70;57.90;;;;;;4976270;28;20329;-60
2022/07/20 03:10:19;;;;;;;13.43;7.93;;;18.70;58.20;;;;;;4980573;28;20578;-58
2022/07/20 03:12:45;;;;;;;13.30;8.40;;;18.70;58.30;;;;;;4988930;28;20181;-59
2022/07/20 03:15:11;;;;;;;13.97;8.50;;;18.60;58.50;;;;;;4986739;28;20432;-59
2022/07/20 03:17:48;;;;;;;12.53;7.90;;;18.60;58.60;;;;;;4987145;28;20231;-59
2022/07/20 03:20:17;;;;;;;10.30;8.23;;;18.60;58.70;;;;;;4988223;28;20455;-59
2022/07/20 03:22:43;;;;;;;11.50;8.33;;;18.60;59.00;;;;;;4977804;28;20436;-60
2022/07/20 03:25:09;;;;;;;16.90;8.40;;;18.50;59.10;;;;;;4986720;28;20424;-59
2022/07/20 03:27:35;;;;;;;9.63;8.47;;;18.50;59.30;;;;;;4982338;28;20197;-60
2022/07/20 03:30:02;;;;;;;12.77;8.93;;;18.50;59.40;;;;;;4982686;28;20463;-60
2022/07/20 03:32:28;;;;;;;14.00;8.37;;;18.50;59.50;;;;;;4989180;28;20451;-59
2022/07/20 03:34:53;;;;;;;19.40;9.10;;;18.40;59.70;;;;;;4985655;28;20436;-58
2022/07/20 03:37:19;;;;;;;12.73;8.50;;;18.40;60.00;;;;;;4977817;28;20205;-58
2022/07/20 03:39:46;;;;;;;16.37;7.87;;;18.40;60.20;;;;;;4988837;28;20200;-59
2022/07/20 03:42:11;;;;;;;12.10;8.23;;;18.30;60.20;;;;;;4993368;28;20428;-58
2022/07/20 03:44:37;;;;;;;12.90;8.10;;;18.30;60.30;;;;;;4984825;28;20181;-59
2022/07/20 03:47:02;;;;;;;11.40;8.30;;;18.30;60.20;;;;;;4986445;28;20627;-60
2022/07/20 03:49:28;;;;;;;16.00;9.13;;;18.30;60.70;;;;;;4984909;28;20247;-60
2022/07/20 03:51:54;;;;;;;12.10;8.40;;;18.20;60.70;;;;;;4973392;28;20626;-60
2022/07/20 03:54:19;;;;;;;14.23;8.30;;;18.20;60.80;;;;;;4986476;28;20697;-59
2022/07/20 03:56:45;;;;;;;16.23;8.50;;;18.20;60.70;;;;;;4989374;28;20212;-59
2022/07/20 03:59:11;;;;;;;11.80;9.10;;;18.20;60.90;;;;;;4990988;28;20257;-60
2022/07/20 04:01:37;;;;;;;16.83;8.70;;;18.20;61.10;;;;;;4976543;28;20177;-59
2022/07/20 04:04:03;;;;;;;16.87;8.70;;;18.20;61.10;;;;;;4983481;28;20439;-58
2022/07/20 04:06:29;;;;;;;12.67;9.63;;;18.20;61.30;;;;;;4976757;28;20253;-59
2022/07/20 04:08:55;;;;;;;15.13;9.33;;;18.20;61.60;;;;;;4985152;28;20433;-59
2022/07/20 04:11:21;;;;;;;10.97;8.87;;;18.20;61.60;;;;;;4977222;28;20189;-58
2022/07/20 04:13:47;;;;;;;14.00;9.33;;;18.20;62.10;;;;;;4989126;28;20444;-60
2022/07/20 04:16:13;;;;;;;13.07;9.13;;;18.20;62.30;;;;;;4983615;28;20462;-60
2022/07/20 04:18:38;;;;;;;14.23;8.90;;;18.20;62.20;;;;;;4989724;28;20220;-61
2022/07/20 04:21:04;;;;;;;15.03;8.87;;;18.20;62.30;;;;;;4991530;28;20208;-60
2022/07/20 04:23:30;;;;;;;15.93;8.77;;;18.10;62.40;;;;;;4986251;28;20237;-60
2022/07/20 04:25:56;;;;;;;13.33;8.90;;;18.10;62.90;;;;;;4987377;28;20201;-60
2022/07/20 04:28:21;;;;;;;14.97;9.97;;;18.20;63.20;;;;;;4977420;28;20197;-60
2022/07/20 04:30:47;;;;;;;11.90;9.00;;;18.20;62.70;;;;;;4987800;28;20697;-60
2022/07/20 04:33:13;;;;;;;12.53;9.70;;;18.20;62.90;;;;;;4982357;28;20211;-60
2022/07/20 04:35:38;;;;;;;13.20;9.73;;;18.20;62.80;;;;;;4981164;28;20192;-60
2022/07/20 04:38:04;;;;;;;14.03;9.57;;;18.20;63.20;;;;;;4982447;28;20205;-59
2022/07/20 04:40:29;;;;;;;19.40;9.90;;;18.20;63.20;;;;;;4983498;28;20208;-60
2022/07/20 04:42:55;;;;;;;19.70;10.73;;;18.20;63.30;;;;;;4991575;28;20272;-60
2022/07/20 04:45:21;;;;;;;14.13;10.50;;;18.10;63.90;;;;;;4987438;28;20206;-60
2022/07/20 04:47:47;;;;;;;18.90;10.07;;;18.10;64.00;;;;;;4986967;28;20827;-61
2022/07/20 04:50:13;;;;;;;21.13;9.63;;;18.20;64.60;;;;;;4982133;28;20308;-60
2022/07/20 04:52:39;;;;;;;14.50;11.40;;;18.20;65.00;;;;;;4987099;28;20180;-60
2022/07/20 04:55:05;;;;;;;17.00;10.20;;;18.30;64.70;;;;;;4981670;28;20514;-56
2022/07/20 04:57:31;;;;;;;22.87;10.10;;;18.30;64.20;;;;;;4980875;28;20519;-56
2022/07/20 04:59:57;;;;;;;14.90;8.90;;;18.40;64.30;;;;;;4983366;28;20441;-59
2022/07/20 05:02:22;;;;;;;16.37;9.73;;;18.50;64.30;;;;;;4982993;28;20301;-60
2022/07/20 05:04:48;;;;;;;20.27;11.47;;;18.50;64.60;;;;;;4978656;28;20181;-60
2022/07/20 05:07:14;;;;;;;19.97;9.80;;;18.60;63.80;;;;;;4986388;28;20204;-60
2022/07/20 05:09:41;;;;;;;15.63;9.77;;;18.60;63.10;;;;;;4990009;28;20609;-60
2022/07/20 05:12:07;;;;;;;16.10;10.30;;;18.70;62.90;;;;;;4986456;28;20436;-60
2022/07/20 05:14:33;;;;;;;16.07;9.90;;;18.70;63.10;;;;;;4983425;28;20432;-60
2022/07/20 05:16:59;;;;;;;17.23;10.17;;;18.80;62.60;;;;;;4980007;28;20514;-60
2022/07/20 05:19:24;;;;;;;15.53;9.90;;;18.90;61.90;;;;;;4992935;28;20534;-60
2022/07/20 05:21:50;;;;;;;15.87;10.13;;;18.90;62.20;;;;;;4985625;28;20669;-60
2022/07/20 05:24:15;;;;;;;13.90;9.87;;;19.00;62.20;;;;;;4983769;28;20188;-60
2022/07/20 05:26:41;;;;;;;16.97;10.20;;;19.10;61.90;;;;;;4989425;28;20240;-60
2022/07/20 05:29:06;;;;;;;21.27;10.00;;;19.20;60.70;;;;;;4982223;28;20189;-61
2022/07/20 05:31:32;;;;;;;18.70;11.10;;;19.20;60.90;;;;;;4987697;28;20215;-60
2022/07/20 05:33:58;;;;;;;15.10;10.33;;;19.40;61.60;;;;;;4981178;28;20217;-60
2022/07/20 05:36:24;;;;;;;18.13;9.30;;;19.40;60.70;;;;;;4984284;28;20232;-60
2022/07/20 05:38:49;;;;;;;15.20;10.00;;;19.50;60.70;;;;;;4992152;28;20180;-60
2022/07/20 05:41:15;;;;;;;19.57;11.43;;;19.60;60.70;;;;;;4994530;28;20184;-60
2022/07/20 05:43:41;;;;;;;31.50;11.70;;;19.70;61.10;;;;;;4989663;28;20195;-60
2022/07/20 05:46:07;;;;;;;22.47;11.33;;;19.80;61.20;;;;;;4993351;28;20204;-61
2022/07/20 05:48:33;;;;;;;16.90;9.73;;;19.90;61.00;;;;;;4985672;28;20346;-60
2022/07/20 05:50:58;;;;;;;20.07;10.60;;;20.00;61.00;;;;;;4986574;28;20291;-61
2022/07/20 05:53:24;;;;;;;18.80;11.70;;;20.10;61.30;;;;;;4995320;28;20939;-60
2022/07/20 05:55:50;;;;;;;16.00;11.53;;;20.10;60.60;;;;;;4980241;28;20185;-61
2022/07/20 05:58:16;;;;;;;29.03;12.70;;;20.20;60.90;;;;;;4980200;28;20556;-61
2022/07/20 06:00:41;;;;;;;22.47;13.67;;;20.20;60.80;;;;;;4984626;28;20783;-61
2022/07/20 06:03:08;;;;;;;24.37;13.40;;;20.30;60.90;;;;;;4982079;28;20686;-62
2022/07/20 06:05:34;;;;;;;18.47;11.13;;;20.40;60.50;;;;;;4985416;28;20205;-61
2022/07/20 06:08:01;;;;;;;26.27;12.40;;;20.50;60.50;;;;;;4986484;28;20460;-61
2022/07/20 06:10:28;;;;;;;20.90;11.63;;;20.60;60.40;;;;;;4989847;28;20221;-61
2022/07/20 06:12:57;;;;;;;18.63;11.17;;;20.70;60.20;;;;;;4988403;28;20507;-61
2022/07/20 06:15:24;;;;;;;20.27;11.67;;;20.80;59.50;;;;;;4995431;28;20463;-61
2022/07/20 06:17:51;;;;;;;25.40;12.27;;;20.90;59.00;;;;;;4985454;28;20452;-61
2022/07/20 06:20:16;;;;;;;21.43;12.33;;;21.00;58.60;;;;;;4988248;28;20984;-61
2022/07/20 06:22:43;;;;;;;23.90;14.13;;;21.10;58.50;;;;;;4993364;28;20432;-60
2022/07/20 06:25:10;;;;;;;29.73;14.47;;;21.30;58.10;;;;;;4983619;28;20174;-60
2022/07/20 06:27:36;;;;;;;26.83;14.17;;;21.30;57.60;;;;;;4987473;28;20487;-61
2022/07/20 06:30:04;;;;;;;20.70;12.63;;;21.40;57.40;;;;;;4988492;28;20519;-61
2022/07/20 06:32:30;;;;;;;21.20;12.67;;;21.50;57.00;;;;;;4981277;28;20448;-60
2022/07/20 06:34:55;;;;;;;27.33;13.53;;;21.60;57.10;;;;;;4981327;28;20531;-60
2022/07/20 06:37:21;;;;;;;18.80;11.10;;;21.80;56.50;;;;;;4984468;28;20756;-59
2022/07/20 06:39:47;;;;;;;23.90;11.77;;;21.90;56.20;;;;;;4983107;28;20201;-60
2022/07/20 06:42:13;;;;;;;17.83;11.93;;;22.00;55.90;;;;;;4993718;28;20435;-59
2022/07/20 06:44:39;;;;;;;19.43;13.00;;;22.10;55.90;;;;;;4990643;28;20701;-59
2022/07/20 06:47:05;;;;;;;30.10;13.17;;;22.30;55.70;;;;;;4989809;28;20506;-60
2022/07/20 06:49:31;;;;;;;20.13;11.97;;;22.40;55.50;;;;;;4982163;28;20657;-61
2022/07/20 06:51:57;;;;;;;23.43;12.10;;;22.50;55.10;;;;;;4988363;28;20177;-61
2022/07/20 06:54:23;;;;;;;24.20;13.13;;;22.60;55.00;;;;;;4983394;28;21041;-61
2022/07/20 06:56:48;;;;;;;23.33;12.40;;;22.70;54.80;;;;;;4988131;28;20196;-61
2022/07/20 06:59:14;;;;;;;24.13;12.70;;;22.80;55.20;;;;;;4987411;28;20186;-61
2022/07/20 07:01:39;;;;;;;19.43;11.23;;;23.00;55.30;;;;;;4981136;28;20185;-61
2022/07/20 07:04:06;;;;;;;25.83;12.60;;;23.20;55.10;;;;;;4983780;28;20181;-61
2022/07/20 07:06:32;;;;;;;17.10;12.50;;;23.30;54.70;;;;;;4985283;28;20626;-60
2022/07/20 07:08:58;;;;;;;18.20;11.67;;;23.40;54.20;;;;;;4986408;28;20174;-57
2022/07/20 07:11:24;;;;;;;20.50;11.73;;;23.60;53.90;;;;;;4985556;28;20432;-61
2022/07/20 07:13:50;;;;;;;20.47;12.37;;;23.70;53.60;;;;;;4984407;28;20475;-60
2022/07/20 07:16:16;;;;;;;20.50;11.23;;;23.80;53.20;;;;;;4991061;28;20836;-61
2022/07/20 07:18:41;;;;;;;19.60;13.53;;;23.90;52.90;;;;;;4990465;28;20177;-61
2022/07/20 07:21:07;;;;;;;22.07;11.60;;;24.00;52.70;;;;;;4988346;28;20180;-60
2022/07/20 07:23:33;;;;;;;23.60;11.17;;;24.20;52.70;;;;;;4983189;28;20181;-60
2022/07/20 07:25:58;;;;;;;23.67;10.03;;;24.30;52.70;;;;;;4984793;28;20910;-60
2022/07/20 07:28:24;;;;;;;21.90;12.17;;;24.50;52.40;;;;;;4983745;28;20239;-60
2022/07/20 07:30:50;;;;;;;21.13;11.10;;;24.70;52.10;;;;;;4990155;28;20189;-60
2022/07/20 07:33:17;;;;;;;19.20;11.07;;;24.80;51.90;;;;;;4988976;28;20196;-60
2022/07/20 07:35:43;;;;;;;21.93;11.00;;;25.00;51.50;;;;;;4984618;28;20215;-60
2022/07/20 07:38:09;;;;;;;15.57;10.03;;;25.10;51.10;;;;;;4986607;28;20456;-61
2022/07/20 07:40:34;;;;;;;18.20;9.10;;;25.20;50.70;;;;;;4987263;28;20805;-60
2022/07/20 07:43:00;;;;;;;25.90;9.00;;;25.30;50.20;;;;;;4983440;28;20189;-61
2022/07/20 07:45:26;;;;;;;17.13;9.90;;;25.30;48.90;;;;;;4986377;28;20215;-60
2022/07/20 07:47:51;;;;;;;15.20;9.20;;;25.40;49.30;;;;;;4987779;28;20212;-60
2022/07/20 07:50:17;;;;;;;16.20;8.37;;;25.60;49.30;;;;;;4982212;28;20638;-59
2022/07/20 07:52:43;;;;;;;13.63;9.43;;;25.70;49.00;;;;;;4989412;28;20177;-60
2022/07/20 07:55:09;;;;;;;14.70;9.20;;;25.90;48.70;;;;;;4982322;28;20172;-62
2022/07/20 07:57:35;;;;;;;15.20;9.47;;;26.10;48.20;;;;;;4983341;28;20288;-62
2022/07/20 08:00:01;;;;;;;16.17;8.63;;;26.30;47.80;;;;;;4982091;28;20177;-62
2022/07/20 08:02:26;;;;;;;16.07;8.83;;;26.50;47.40;;;;;;4984882;28;20677;-63
2022/07/20 08:04:52;;;;;;;13.97;9.10;;;26.60;46.70;;;;;;4979806;28;20184;-62
2022/07/20 08:07:18;;;;;;;16.10;8.70;;;26.70;46.60;;;;;;4980765;28;20605;-61
2022/07/20 08:09:43;;;;;;;17.37;8.30;;;26.80;46.10;;;;;;4987597;28;20662;-61
2022/07/20 08:12:09;;;;;;;14.90;9.40;;;26.90;45.60;;;;;;4981960;28;20217;-61
2022/07/20 08:14:34;;;;;;;10.07;7.80;;;27.00;45.70;;;;;;4985048;28;20191;-59
2022/07/20 08:17:00;;;;;;;18.27;8.60;;;27.10;45.80;;;;;;4983570;28;20201;-61
2022/07/20 08:19:26;;;;;;;18.00;8.57;;;27.20;45.00;;;;;;4979276;28;20180;-61
2022/07/20 08:21:52;;;;;;;14.77;7.90;;;27.30;44.20;;;;;;4982802;28;20188;-63
2022/07/20 08:24:17;;;;;;;10.47;7.33;;;27.40;44.00;;;;;;4984106;28;20222;-60
2022/07/20 08:26:43;;;;;;;17.27;7.93;;;27.50;43.90;;;;;;4987648;28;20212;-61
2022/07/20 08:29:09;;;;;;;9.47;7.97;;;27.50;43.70;;;;;;4980660;28;20185;-60
2022/07/20 08:31:35;;;;;;;9.47;8.20;;;27.50;43.70;;;;;;4983568;28;20193;-61
2022/07/20 08:34:01;;;;;;;21.97;8.07;;;27.60;44.40;;;;;;4989578;28;20187;-62
2022/07/20 08:36:27;;;;;;;12.03;7.30;;;27.60;44.20;;;;;;4977389;28;20239;-60
2022/07/20 08:38:52;;;;;;;8.27;7.33;;;27.60;44.10;;;;;;4986293;28;20260;-61
2022/07/20 08:41:18;;;;;;;10.27;7.63;;;27.70;44.40;;;;;;4985031;28;20653;-60
2022/07/20 08:43:44;;;;;;;10.23;7.23;;;27.80;44.20;;;;;;4974769;28;20635;-59
2022/07/20 08:46:11;;;;;;;9.03;7.60;;;27.90;44.10;;;;;;4983582;28;20208;-59
2022/07/20 08:48:40;;;;;;;14.13;8.33;;;28.10;43.70;;;;;;4984956;28;20251;-59
2022/07/20 08:51:06;;;;;;;32.83;8.40;;;28.30;42.90;;;;;;4979401;28;20197;-60
2022/07/20 08:53:31;;;;;;;10.20;7.00;;;28.40;42.90;;;;;;4978892;28;20168;-59
2022/07/20 08:55:57;;;;;;;17.70;8.20;;;28.50;43.50;;;;;;4982258;28;20295;-61
2022/07/20 08:58:23;;;;;;;11.07;8.03;;;28.60;43.30;;;;;;4978301;28;20283;-61
2022/07/20 09:00:49;;;;;;;13.33;8.63;;;28.80;43.10;;;;;;4984049;28;20176;-63
2022/07/20 09:03:14;;;;;;;11.93;8.40;;;28.90;42.10;;;;;;4984255;28;20177;-61
2022/07/20 09:05:41;;;;;;;10.48;7.35;;;29.00;42.10;;;;;;4977590;28;20209;-61
2022/07/20 09:08:11;;;;;;;8.85;7.65;;;29.00;42.30;;;;;;4983047;28;20204;-61
2022/07/20 09:10:40;;;;;;;12.20;7.57;;;29.10;42.10;;;;;;4984242;28;20904;-61
2022/07/20 09:13:13;;;;;;;8.75;7.53;;;29.20;42.60;;;;;;4985951;28;20193;-60
2022/07/20 09:15:40;;;;;;;12.57;7.80;;;29.30;42.10;;;;;;4969681;28;20190;-62
2022/07/20 09:18:12;;;;;;;15.20;7.78;;;29.40;42.10;;;;;;4979824;28;20200;-62
2022/07/20 09:20:44;;;;;;;9.30;8.27;;;29.50;41.70;;;;;;4984901;28;20528;-62
2022/07/20 09:23:23;;;;;;;9.68;8.15;;;29.60;41.40;;;;;;4984917;28;20191;-62
2022/07/20 09:25:52;;;;;;;8.95;7.75;;;29.70;41.20;;;;;;4983927;28;20831;-63
2022/07/20 09:28:19;;;;;;;12.60;8.40;;;29.80;40.80;;;;;;4978122;28;20197;-64
2022/07/20 09:30:56;;;;;;;9.38;7.90;;;29.80;41.20;;;;;;4987620;28;20207;-63
2022/07/20 09:33:27;;;;;;;10.70;8.18;;;29.90;41.10;;;;;;4986524;28;20173;-63
2022/07/20 09:35:54;;;;;;;12.07;7.50;;;30.10;41.20;;;;;;4980680;28;20180;-61
2022/07/20 09:38:22;;;;;;;13.93;8.23;;;30.20;40.80;;;;;;4986400;28;20744;-62
2022/07/20 09:40:47;;;;;;;13.73;8.10;;;30.30;40.80;;;;;;4985633;28;20180;-63
2022/07/20 09:43:35;;;;;;;9.05;8.00;;;30.40;40.10;;;;;;4980403;28;20929;-62
2022/07/20 09:46:32;;;;;;;12.27;8.00;;;30.60;40.70;;;;;;4987741;28;20211;-62
2022/07/20 09:49:00;;;;;;;9.73;7.80;;;30.70;39.90;;;;;;4976345;28;20193;-62
2022/07/20 09:51:31;;;;;;;16.23;7.93;;;30.70;39.30;;;;;;4984641;28;20178;-62
2022/07/20 09:54:12;;;;;;;13.10;7.45;;;30.80;39.90;;;;;;4986206;28;20699;-63
2022/07/20 09:56:44;;;;;;;13.07;8.25;;;31.00;40.40;;;;;;4984022;28;20204;-63
2022/07/20 09:59:11;;;;;;;14.32;8.18;;;31.20;40.30;;;;;;4987626;28;20207;-63
2022/07/20 10:01:39;;;;;;;9.63;7.30;;;31.30;39.90;;;;;;4987319;28;20600;-62
2022/07/20 10:04:07;;;;;;;9.52;7.32;;;31.50;39.50;;;;;;4989565;28;20184;-63
2022/07/20 10:06:35;;;;;;;10.52;8.40;;;31.60;39.80;;;;;;4984118;28;20214;-63
2022/07/20 10:09:03;;;;;;;8.70;7.72;;;31.80;39.60;;;;;;4985318;28;20518;-62
2022/07/20 10:11:29;;;;;;;9.65;8.02;;;31.90;39.50;;;;;;4983787;28;20184;-61
2022/07/20 10:13:56;;;;;;;11.18;7.88;;;32.00;39.80;;;;;;4986331;28;20177;-62
2022/07/20 10:16:28;;;;;;;14.60;8.20;;;32.10;39.80;;;;;;4980884;28;20893;-61
2022/07/20 10:18:54;;;;;;;9.35;7.85;;;32.30;39.60;;;;;;4985708;28;20184;-60
2022/07/20 10:21:39;;;;;;;15.30;8.50;;;32.40;38.80;;;;;;4985991;28;20210;-60
2022/07/20 10:24:30;;;;;;;16.33;7.63;;;32.40;38.40;;;;;;4985711;28;20182;-60
2022/07/20 10:27:08;;;;;;;8.32;7.47;;;32.40;38.00;;;;;;4986896;28;20205;-60
2022/07/20 10:29:35;;;;;;;12.10;8.13;;;32.40;38.10;;;;;;4983620;28;20204;-59
2022/07/20 10:32:09;;;;;;;14.38;7.93;;;32.50;38.20;;;;;;4984886;28;20556;-60
2022/07/20 10:34:45;;;;;;;11.60;8.05;;;32.60;37.30;;;;;;4980168;28;20269;-60
2022/07/20 10:37:34;;;;;;;9.65;7.13;;;32.70;37.10;;;;;;4990763;28;20196;-60
2022/07/20 10:40:14;;;;;;;12.98;8.07;;;32.80;37.40;;;;;;4980920;28;20208;-60
2022/07/20 10:42:47;;;;;;;17.38;7.85;;;32.90;37.60;;;;;;4981199;28;20677;-59
2022/07/20 10:45:19;;;;;;;11.10;8.32;;;33.20;37.50;;;;;;4985073;28;20182;-62
2022/07/20 10:47:50;;;;;;;12.05;8.02;;;33.30;37.00;;;;;;4986716;28;20203;-62
2022/07/20 10:50:23;;;;;;;9.27;6.70;;;33.30;37.20;;;;;;4985742;28;20215;-61
2022/07/20 10:52:54;;;;;;;9.43;7.60;;;33.40;36.90;;;;;;4983514;28;20451;-61
2022/07/20 10:55:35;;;;;;;15.68;7.38;;;33.50;37.10;;;;;;4982438;28;20184;-62
2022/07/20 10:58:07;;;;;;;12.00;7.68;;;33.50;36.00;;;;;;4988268;28;20213;-61
2022/07/20 11:00:40;;;;;;;14.10;7.20;;;33.40;36.50;;;;;;4976319;28;20181;-62
2022/07/20 11:03:18;;;;;;;15.18;7.85;;;33.40;36.90;;;;;;4984506;28;20184;-62
2022/07/20 11:05:46;;;;;;;18.00;8.95;;;33.40;36.70;;;;;;4982289;28;20204;-62
2022/07/20 11:08:13;;;;;;;12.27;7.20;;;33.50;36.10;;;;;;4983676;28;20835;-63
2022/07/20 11:10:40;;;;;;;9.77;7.00;;;33.50;36.10;;;;;;4987679;28;20699;-63
2022/07/20 11:13:09;;;;;;;10.73;7.88;;;33.60;36.40;;;;;;4985969;28;20181;-62
2022/07/20 11:15:52;;;;;;;11.52;7.70;;;33.80;36.20;;;;;;4986786;28;20167;-62
2022/07/20 11:18:21;;;;;;;9.00;7.63;;;33.90;35.80;;;;;;4985994;28;20240;-61
2022/07/20 11:20:52;;;;;;;12.48;7.40;;;33.90;36.10;;;;;;4987619;28;20181;-61
2022/07/20 11:23:22;;;;;;;8.90;7.45;;;33.80;35.70;;;;;;4984914;28;20223;-62
2022/07/20 11:25:57;;;;;;;15.43;7.50;;;33.80;35.40;;;;;;4979682;28;20298;-62
2022/07/20 11:28:29;;;;;;;9.90;7.40;;;33.70;35.60;;;;;;4984081;28;20196;-59
2022/07/20 11:30:56;;;;;;;9.25;7.75;;;33.70;35.60;;;;;;4979821;28;21977;-59
2022/07/20 11:33:33;;;;;;;10.13;8.00;;;33.70;34.90;;;;;;4982141;28;20180;-58
2022/07/20 11:36:13;;;;;;;10.73;8.00;;;33.70;34.60;;;;;;4978821;28;20192;-63
2022/07/20 11:38:44;;;;;;;13.93;7.70;;;33.70;35.10;;;;;;4980389;28;20191;-62
2022/07/20 11:41:12;;;;;;;9.02;7.55;;;33.70;34.70;;;;;;4980226;28;20188;-62
2022/07/20 11:43:38;;;;;;;12.40;8.60;;;33.80;34.50;;;;;;4977122;28;20197;-62
2022/07/20 11:46:22;;;;;;;10.88;8.00;;;33.90;34.00;;;;;;4981704;28;20324;-63
2022/07/20 11:49:05;;;;;;;9.32;7.55;;;34.00;34.30;;;;;;4981478;28;20553;-62
2022/07/20 11:51:33;;;;;;;8.23;7.43;;;34.10;33.50;;;;;;4985241;28;20242;-62
2022/07/20 11:53:59;;;;;;;10.05;7.10;;;34.20;33.00;;;;;;4985605;28;20655;-62
2022/07/20 11:56:28;;;;;;;8.80;7.53;;;34.40;32.40;;;;;;4981710;28;20217;-62
2022/07/20 11:58:56;;;;;;;9.13;8.07;;;34.50;31.50;;;;;;4982640;28;20689;-62
2022/07/20 12:01:25;;;;;;;10.07;8.75;;;34.60;31.40;;;;;;4985174;28;20266;-62
2022/07/20 12:03:53;;;;;;;14.43;9.93;;;34.70;31.80;;;;;;4982669;28;20183;-62
2022/07/20 12:06:19;;;;;;;14.45;10.25;;;34.70;32.20;;;;;;4982632;28;20215;-63
2022/07/20 12:09:02;;;;;;;12.85;10.88;;;34.70;32.90;;;;;;4987044;28;20192;-63
2022/07/20 12:11:28;;;;;;;19.73;11.13;;;34.70;33.10;;;;;;4987863;28;20732;-62
2022/07/20 12:13:54;;;;;;;16.25;11.13;;;34.70;33.70;;;;;;4987515;28;20262;-62
2022/07/20 12:16:20;;;;;;;13.45;10.23;;;34.80;34.20;;;;;;4984193;28;20173;-62
2022/07/20 12:18:51;;;;;;;11.52;9.02;;;35.00;33.00;;;;;;4982086;28;20712;-63
2022/07/20 12:21:25;;;;;;;10.38;9.23;;;35.00;31.20;;;;;;4976835;28;20192;-62
2022/07/20 12:23:52;;;;;;;12.90;8.98;;;35.00;31.40;;;;;;4979393;28;20185;-61
2022/07/20 12:26:30;;;;;;;11.10;9.90;;;35.00;32.20;;;;;;4982668;28;20208;-61
2022/07/20 12:29:23;;;;;;;12.63;9.40;;;35.20;32.30;;;;;;4984552;28;20184;-62
2022/07/20 12:32:01;;;;;;;11.27;8.90;;;35.20;31.30;;;;;;4978158;28;20190;-62
2022/07/20 12:34:27;;;;;;;12.02;8.60;;;35.20;31.30;;;;;;4979642;28;20184;-62
2022/07/20 12:36:53;;;;;;;11.85;8.82;;;35.20;31.60;;;;;;4980403;28;20204;-62
2022/07/20 12:39:41;;;;;;;13.00;9.23;;;35.20;32.00;;;;;;4981507;28;20193;-62